Fairview Park, Ohio
Current Conditions -  °F | °C
As of 6:51 PM on Monday 20 Oct 2014 (Local Time) from KCLE Reporting Station
Light Rain Light Rain  
Wind Chill: 53°   Ceiling: 2700
Heat Index: 53°   Visibility: 5mi
Dew Point: 50°   Wind: 8mph
Humidity: 89%   Direction: 210°SSW
Pressure: 29.85"   Gusts: NA
Location:  41.45°N, 81.85°W
Report Text: KCLE 202251Z 21007KT 5SM -RA BR SCT019 BKN027 OVC050 12/10 A2985 RMK AO2 SLP111 P0010 T01170100
Loading
Personal Weather Stations






























Interactive Weather Map
Tropical Storm Tracking
New forecast layout! Learn more

10-Day Weather Forecast

Advertisements
Track Severe Weather on mobile